Time;durP1;ratioP1;P1;durP2;ratioP2;P2;SDS_P1;SDS_P2;PMS_P1;PMS_P2;Temp;Humidity;BMP_temperature;BMP_pressure;BME280_temperature;BME280_humidity;BME280_pressure;Samples;Min_cycle;Max_cycle;Signal;HPM_P1;HPM_P2
2021/04/03 00:00:13;;;;;;;5.80;1.07;;;6.60;74.40;;;;;;5077535;28;20043;-74
2021/04/03 00:02:40;;;;;;;3.17;0.73;;;6.60;74.40;;;;;;5079864;28;20036;-75
2021/04/03 00:05:10;;;;;;;3.37;0.87;;;6.60;74.30;;;;;;5088872;28;20056;-75
2021/04/03 00:07:37;;;;;;;5.43;0.40;;;6.60;74.40;;;;;;5081720;28;20051;-75
2021/04/03 00:10:07;;;;;;;3.07;0.50;;;6.60;74.30;;;;;;5087400;28;20064;-75
2021/04/03 00:12:34;;;;;;;1.33;0.40;;;6.60;74.20;;;;;;5088971;28;20067;-74
2021/04/03 00:15:01;;;;;;;5.23;1.10;;;6.60;74.20;;;;;;5091784;28;20097;-74
2021/04/03 00:17:28;;;;;;;7.50;0.97;;;6.70;74.00;;;;;;5082951;28;20044;-74
2021/04/03 00:19:55;;;;;;;7.43;1.73;;;6.70;73.90;;;;;;5053450;28;20052;-74
2021/04/03 00:22:23;;;;;;;4.60;0.50;;;6.70;73.90;;;;;;5084091;28;20498;-74
2021/04/03 00:24:50;;;;;;;2.87;0.70;;;6.60;73.80;;;;;;5095475;28;20085;-75
2021/04/03 00:27:17;;;;;;;1.53;0.30;;;6.70;73.90;;;;;;5092609;28;20570;-74
2021/04/03 00:29:43;;;;;;;2.97;0.40;;;6.70;73.90;;;;;;5092104;28;20044;-75
2021/04/03 00:32:10;;;;;;;2.63;0.43;;;6.70;73.90;;;;;;5088316;28;20048;-75
2021/04/03 00:34:37;;;;;;;4.50;0.60;;;6.70;73.80;;;;;;5074313;28;20051;-75
2021/04/03 00:37:04;;;;;;;3.97;0.50;;;6.80;73.80;;;;;;5090062;28;20100;-74
2021/04/03 00:39:30;;;;;;;6.53;0.60;;;6.80;73.70;;;;;;5093031;28;20399;-75
2021/04/03 00:41:57;;;;;;;6.40;0.50;;;6.80;73.70;;;;;;5094263;28;20433;-75
2021/04/03 00:44:25;;;;;;;3.23;0.30;;;6.80;73.60;;;;;;5087110;28;20380;-75
2021/04/03 00:46:52;;;;;;;3.37;0.30;;;6.80;73.60;;;;;;5081021;28;20033;-75
2021/04/03 00:49:19;;;;;;;2.80;0.50;;;6.80;73.60;;;;;;5075630;28;20040;-76
2021/04/03 00:51:46;;;;;;;2.93;0.40;;;6.80;73.60;;;;;;5075782;28;20044;-76
2021/04/03 00:54:13;;;;;;;3.53;0.47;;;6.80;73.60;;;;;;5092532;28;20762;-75
2021/04/03 00:56:40;;;;;;;2.53;0.57;;;6.80;73.60;;;;;;5076106;28;20040;-75
2021/04/03 00:59:08;;;;;;;1.63;0.40;;;6.90;73.50;;;;;;5081040;28;20044;-75
2021/04/03 01:01:39;;;;;;;1.60;0.30;;;6.90;73.50;;;;;;5082381;28;20038;-75
2021/04/03 01:04:06;;;;;;;2.13;0.50;;;6.90;73.50;;;;;;5084107;28;20064;-75
2021/04/03 01:06:34;;;;;;;5.63;1.03;;;6.80;73.40;;;;;;5089452;28;20135;-75
2021/04/03 01:09:02;;;;;;;3.43;0.30;;;6.80;73.40;;;;;;5090619;28;20434;-75
2021/04/03 01:11:34;;;;;;;2.63;0.20;;;6.80;73.30;;;;;;5093025;28;20052;-75
2021/04/03 01:14:12;;;;;;;2.65;0.40;;;6.80;73.40;;;;;;5092615;28;20146;-75
2021/04/03 01:16:43;;;;;;;4.03;0.43;;;6.80;73.40;;;;;;5086493;28;20056;-75
2021/04/03 01:19:50;;;;;;;3.97;0.30;;;6.90;73.40;;;;;;5077933;28;20484;-75
2021/04/03 01:22:52;;;;;;;1.93;0.30;;;6.90;73.30;;;;;;5085277;28;20029;-69
2021/04/03 01:25:38;;;;;;;5.03;0.50;;;6.80;73.10;;;;;;5085209;28;20044;-69
2021/04/03 01:28:50;;;;;;;4.03;0.30;;;6.90;73.10;;;;;;5086675;28;20186;-70
2021/04/03 01:31:17;;;;;;;1.77;0.23;;;6.90;73.10;;;;;;5091676;28;20052;-69
2021/04/03 01:33:46;;;;;;;2.20;0.20;;;6.80;73.10;;;;;;5085070;28;20059;-69
2021/04/03 01:36:23;;;;;;;3.77;0.60;;;6.90;73.10;;;;;;5086168;28;20044;-69
2021/04/03 01:39:00;;;;;;;4.20;0.70;;;6.90;73.00;;;;;;5111441;27;20059;-69
2021/04/03 01:41:32;;;;;;;3.33;0.40;;;6.90;73.00;;;;;;5079358;28;20059;-69
2021/04/03 01:44:01;;;;;;;2.20;0.37;;;6.90;73.00;;;;;;5074580;28;20063;-70
2021/04/03 01:46:35;;;;;;;2.83;0.33;;;6.90;73.00;;;;;;5075810;28;20047;-69
2021/04/03 01:49:09;;;;;;;3.17;0.53;;;6.90;72.90;;;;;;5090270;28;20389;-70
2021/04/03 01:51:44;;;;;;;3.93;0.67;;;6.90;72.90;;;;;;5090736;28;20051;-69
2021/04/03 01:54:13;;;;;;;;;;;6.90;72.90;;;;;;5087828;28;20540;-70
2021/04/03 01:56:43;;;;;;;1.80;0.57;;;6.90;72.90;;;;;;5075055;28;20349;-70
2021/04/03 01:59:14;;;;;;;3.35;0.30;;;6.90;72.90;;;;;;5075235;28;20052;-69
2021/04/03 02:01:44;;;;;;;3.57;0.33;;;6.90;72.90;;;;;;5079021;28;20036;-69
2021/04/03 02:04:15;;;;;;;1.27;0.30;;;6.90;72.90;;;;;;5071637;28;20044;-69
2021/04/03 02:06:46;;;;;;;3.50;0.50;;;6.90;72.90;;;;;;5078752;28;20043;-69
2021/04/03 02:09:40;;;;;;;3.20;0.30;;;6.90;72.80;;;;;;5071873;28;20044;-70
2021/04/03 02:12:19;;;;;;;2.67;0.20;;;6.90;72.80;;;;;;5088655;28;20846;-69
2021/04/03 02:14:54;;;;;;;2.37;0.20;;;7.00;72.80;;;;;;5059435;28;20392;-69
2021/04/03 02:17:22;;;;;;;4.00;0.37;;;7.00;72.70;;;;;;5080319;28;20040;-69
2021/04/03 02:19:52;;;;;;;4.27;0.53;;;7.00;72.70;;;;;;5090899;28;20097;-69
2021/04/03 02:22:19;;;;;;;3.80;0.53;;;7.00;72.70;;;;;;5044197;28;20044;-76
2021/04/03 02:24:56;;;;;;;3.50;0.47;;;7.00;72.60;;;;;;5091223;28;20067;-75
2021/04/03 02:27:26;;;;;;;4.03;0.43;;;7.00;72.50;;;;;;5084505;28;20041;-76
2021/04/03 02:30:11;;;;;;;3.23;0.40;;;6.90;72.30;;;;;;5072709;28;20043;-75
2021/04/03 02:32:50;;;;;;;1.70;0.30;;;6.90;72.30;;;;;;5072633;28;20113;-75
2021/04/03 02:35:19;;;;;;;2.83;0.53;;;6.90;72.20;;;;;;5087519;28;20093;-75
2021/04/03 02:37:48;;;;;;;3.33;0.40;;;7.00;72.30;;;;;;5084965;28;20382;-75
2021/04/03 02:40:22;;;;;;;3.37;0.47;;;6.90;72.20;;;;;;5080351;28;20109;-75
2021/04/03 02:43:09;;;;;;;1.50;0.27;;;6.90;72.20;;;;;;5086260;28;20051;-75
2021/04/03 02:45:49;;;;;;;1.87;0.47;;;6.90;72.10;;;;;;5089038;28;20045;-75
2021/04/03 02:48:21;;;;;;;3.13;0.33;;;6.90;72.20;;;;;;5079545;28;20498;-75
2021/04/03 02:50:52;;;;;;;2.47;0.30;;;6.80;72.20;;;;;;5087094;28;20048;-75
2021/04/03 02:53:27;;;;;;;2.97;0.30;;;6.80;72.30;;;;;;5083407;27;20040;-75
2021/04/03 02:55:59;;;;;;;5.13;0.47;;;6.80;72.30;;;;;;5082825;28;20666;-76
2021/04/03 02:58:31;;;;;;;3.77;0.40;;;6.80;72.30;;;;;;5088367;28;20515;-75
2021/04/03 03:00:59;;;;;;;3.60;0.30;;;6.80;72.40;;;;;;5086377;28;20431;-75
2021/04/03 03:03:29;;;;;;;5.87;0.60;;;6.70;72.40;;;;;;5084958;28;20075;-76
2021/04/03 03:05:59;;;;;;;4.50;0.53;;;6.70;72.40;;;;;;5092089;28;20044;-75
2021/04/03 03:08:29;;;;;;;4.57;0.53;;;6.70;72.50;;;;;;5090391;28;20048;-75
2021/04/03 03:11:00;;;;;;;3.87;0.60;;;6.70;72.40;;;;;;5086487;28;20052;-75
2021/04/03 03:13:31;;;;;;;3.87;0.40;;;6.70;72.40;;;;;;5093203;28;21539;-75
2021/04/03 03:16:03;;;;;;;10.77;0.60;;;6.70;73.00;;;;;;5093160;28;20036;-76
2021/04/03 03:18:32;;;;;;;4.78;0.80;;;6.70;72.50;;;;;;5061259;28;20062;-76
2021/04/03 03:21:00;;;;;;;4.17;0.50;;;6.70;72.60;;;;;;5072321;28;20465;-75
2021/04/03 03:23:27;;;;;;;3.77;0.57;;;6.60;72.60;;;;;;5089587;28;20040;-70
2021/04/03 03:25:56;;;;;;;3.63;0.50;;;6.50;72.70;;;;;;5090009;28;20047;-69
2021/04/03 03:28:26;;;;;;;4.33;0.60;;;6.50;72.80;;;;;;5090157;28;20146;-69
2021/04/03 03:30:54;;;;;;;5.30;0.50;;;6.40;72.90;;;;;;5091088;28;20376;-69
2021/04/03 03:33:25;;;;;;;3.85;0.60;;;6.40;73.10;;;;;;5090054;28;20052;-69
2021/04/03 03:35:56;;;;;;;2.57;0.30;;;6.30;73.20;;;;;;5090352;28;20052;-69
2021/04/03 03:38:23;;;;;;;2.97;0.47;;;6.20;73.30;;;;;;5090258;28;20055;-69
2021/04/03 03:40:54;;;;;;;4.17;1.40;;;6.20;73.50;;;;;;5083674;28;20045;-69
2021/04/03 03:43:25;;;;;;;3.33;0.50;;;6.10;73.60;;;;;;5066282;28;20051;-69
2021/04/03 03:45:53;;;;;;;1.87;0.40;;;6.10;73.70;;;;;;5089487;28;20044;-69
2021/04/03 03:48:20;;;;;;;3.73;0.93;;;6.10;73.80;;;;;;5072841;28;20093;-69
2021/04/03 03:50:47;;;;;;;3.63;0.70;;;6.00;73.80;;;;;;5091271;28;20040;-69
2021/04/03 03:53:18;;;;;;;3.07;0.60;;;6.00;73.90;;;;;;5093960;28;20111;-75
2021/04/03 03:55:46;;;;;;;3.17;0.50;;;5.90;74.00;;;;;;5085527;28;20509;-75
2021/04/03 03:58:18;;;;;;;5.53;0.87;;;5.90;74.10;;;;;;5079657;28;20085;-75
2021/04/03 04:00:49;;;;;;;3.53;0.50;;;5.90;74.20;;;;;;5084672;28;20051;-76
2021/04/03 04:03:19;;;;;;;2.20;0.40;;;5.80;74.30;;;;;;5094607;28;20130;-70
2021/04/03 04:05:52;;;;;;;2.87;0.30;;;5.80;74.30;;;;;;5077959;28;20036;-69
2021/04/03 04:08:23;;;;;;;6.10;0.60;;;5.80;74.40;;;;;;5077744;28;20106;-69
2021/04/03 04:10:57;;;;;;;3.87;0.60;;;5.70;74.50;;;;;;5095139;28;20510;-69
2021/04/03 04:13:24;;;;;;;5.60;0.50;;;5.70;74.70;;;;;;5073096;28;20044;-69
2021/04/03 04:15:53;;;;;;;3.20;0.77;;;5.70;74.70;;;;;;5070682;28;20032;-69
2021/04/03 04:18:21;;;;;;;5.47;1.03;;;5.70;74.80;;;;;;5093045;28;20046;-69
2021/04/03 04:20:49;;;;;;;3.10;0.40;;;5.60;74.90;;;;;;5076648;28;20047;-69
2021/04/03 04:23:24;;;;;;;5.47;0.67;;;5.60;75.00;;;;;;5094628;28;20032;-69
2021/04/03 04:25:55;;;;;;;4.60;0.57;;;5.60;75.20;;;;;;5061070;28;20059;-69
2021/04/03 04:28:25;;;;;;;10.43;0.73;;;5.50;75.20;;;;;;5092781;28;20078;-70
2021/04/03 04:30:54;;;;;;;8.03;1.03;;;5.60;75.60;;;;;;5093129;28;20051;-70
2021/04/03 04:33:21;;;;;;;3.43;0.53;;;5.60;75.50;;;;;;5076155;28;20082;-69
2021/04/03 04:35:52;;;;;;;6.53;0.83;;;5.50;75.50;;;;;;5073905;28;20044;-70
2021/04/03 04:38:24;;;;;;;9.77;1.35;;;5.50;75.60;;;;;;5072845;28;20431;-70
2021/04/03 04:40:52;;;;;;;2.13;0.40;;;5.50;75.90;;;;;;5094203;28;20036;-70
2021/04/03 04:43:21;;;;;;;7.43;0.60;;;5.40;75.90;;;;;;5094070;28;20078;-70
2021/04/03 04:45:50;;;;;;;4.30;0.80;;;5.40;76.00;;;;;;5092795;28;20064;-69
2021/04/03 04:48:22;;;;;;;4.47;1.08;;;5.40;76.00;;;;;;5094063;28;20032;-70
2021/04/03 04:50:57;;;;;;;7.40;0.77;;;5.40;76.10;;;;;;5092797;28;20047;-70
2021/04/03 04:53:24;;;;;;;7.60;0.80;;;5.30;76.30;;;;;;5092704;28;20056;-69
2021/04/03 04:55:51;;;;;;;6.73;1.23;;;5.30;76.40;;;;;;5082271;28;20040;-69
2021/04/03 04:58:18;;;;;;;5.83;0.97;;;5.30;76.50;;;;;;5092375;28;20044;-70
2021/04/03 05:00:47;;;;;;;4.67;0.60;;;5.30;76.60;;;;;;5093421;28;20036;-69
2021/04/03 05:03:20;;;;;;;6.30;0.90;;;5.30;76.60;;;;;;5092670;28;20123;-70
2021/04/03 05:05:46;;;;;;;4.87;0.90;;;5.30;76.80;;;;;;5092031;28;20047;-70
2021/04/03 05:08:13;;;;;;;5.67;0.60;;;5.40;76.90;;;;;;5092052;28;20395;-69
2021/04/03 05:10:40;;;;;;;6.00;0.93;;;5.40;76.80;;;;;;5072271;28;20439;-70
2021/04/03 05:13:06;;;;;;;5.03;0.90;;;5.40;76.70;;;;;;5090456;28;20043;-69
2021/04/03 05:15:33;;;;;;;4.30;0.77;;;5.40;76.70;;;;;;5092471;28;20480;-70
2021/04/03 05:17:59;;;;;;;5.40;1.10;;;5.50;76.80;;;;;;5093526;28;20487;-70
2021/04/03 05:20:26;;;;;;;9.30;1.40;;;5.50;76.80;;;;;;5092454;28;20419;-69
2021/04/03 05:22:52;;;;;;;4.20;0.73;;;5.50;76.70;;;;;;5093627;28;20036;-70
2021/04/03 05:25:19;;;;;;;5.57;1.23;;;5.60;76.80;;;;;;5074847;28;20044;-70
2021/04/03 05:27:45;;;;;;;7.67;1.07;;;5.60;76.80;;;;;;5093548;28;20047;-70
2021/04/03 05:30:14;;;;;;;6.53;0.90;;;5.70;76.80;;;;;;5092156;28;20482;-70
2021/04/03 05:32:40;;;;;;;7.87;0.90;;;5.70;76.90;;;;;;5092575;28;20395;-70
2021/04/03 05:35:08;;;;;;;5.83;0.83;;;5.70;76.80;;;;;;5092354;28;20040;-70
2021/04/03 05:37:34;;;;;;;6.23;1.03;;;5.70;77.00;;;;;;5092344;28;20121;-70
2021/04/03 05:40:02;;;;;;;10.10;0.97;;;5.70;77.00;;;;;;5092478;28;20050;-70
2021/04/03 05:42:35;;;;;;;8.73;1.40;;;5.80;77.30;;;;;;5074555;28;20470;-70
2021/04/03 05:45:04;;;;;;;5.40;0.90;;;5.80;77.20;;;;;;5092810;28;20040;-70
2021/04/03 05:47:34;;;;;;;9.20;1.03;;;5.80;77.20;;;;;;5093118;28;20062;-70
2021/04/03 05:50:03;;;;;;;6.33;1.50;;;5.80;77.20;;;;;;5091722;28;20094;-70
2021/04/03 05:52:32;;;;;;;6.70;1.00;;;5.80;77.40;;;;;;5092822;28;20097;-70
2021/04/03 05:55:01;;;;;;;7.30;1.03;;;5.80;77.50;;;;;;5072074;28;20052;-70
2021/04/03 05:57:28;;;;;;;6.73;1.03;;;5.80;77.50;;;;;;5090620;28;20055;-70
2021/04/03 05:59:54;;;;;;;10.00;1.00;;;5.80;77.60;;;;;;5071951;28;20071;-70
2021/04/03 06:02:21;;;;;;;8.43;1.00;;;5.80;77.60;;;;;;5091465;28;20040;-70
2021/04/03 06:04:52;;;;;;;9.30;1.50;;;5.80;77.70;;;;;;5042085;28;20036;-69
2021/04/03 06:07:19;;;;;;;10.83;1.50;;;5.80;77.70;;;;;;5091270;28;20048;-70
2021/04/03 06:09:46;;;;;;;7.70;1.33;;;5.90;78.00;;;;;;5092989;28;20101;-70
2021/04/03 06:12:13;;;;;;;6.23;1.20;;;5.90;77.90;;;;;;5092685;28;20050;-70
2021/04/03 06:14:40;;;;;;;5.57;1.27;;;5.90;77.80;;;;;;5090645;28;20126;-69
2021/04/03 06:17:06;;;;;;;7.80;1.30;;;6.00;77.90;;;;;;5070175;28;20117;-69
2021/04/03 06:19:35;;;;;;;9.10;1.10;;;6.00;77.80;;;;;;5086095;28;20348;-69
2021/04/03 06:22:03;;;;;;;7.83;1.53;;;6.10;77.80;;;;;;5092498;28;20048;-70
2021/04/03 06:24:35;;;;;;;8.77;1.73;;;6.10;78.10;;;;;;5092084;28;20407;-70
2021/04/03 06:27:15;;;;;;;10.93;1.30;;;6.20;78.00;;;;;;5090038;28;20036;-70
2021/04/03 06:29:58;;;;;;;10.30;2.07;;;6.20;78.00;;;;;;5085175;28;20131;-70
2021/04/03 06:32:32;;;;;;;11.73;1.97;;;6.30;77.90;;;;;;5091134;28;20047;-70
2021/04/03 06:34:59;;;;;;;9.80;2.00;;;6.30;78.10;;;;;;5075321;28;20051;-76
2021/04/03 06:37:27;;;;;;;14.70;1.67;;;6.40;78.00;;;;;;5090864;28;20032;-76
2021/04/03 06:39:59;;;;;;;13.23;1.93;;;6.40;78.10;;;;;;5074104;28;20052;-75
2021/04/03 06:42:57;;;;;;;10.60;1.90;;;6.40;78.10;;;;;;5091752;28;20047;-74
2021/04/03 06:45:30;;;;;;;9.53;1.60;;;6.50;78.10;;;;;;5091853;28;20111;-74
2021/04/03 06:48:02;;;;;;;13.43;2.73;;;6.50;78.10;;;;;;5090504;28;20050;-74
2021/04/03 06:50:41;;;;;;;16.77;2.77;;;6.50;78.40;;;;;;5081842;28;20064;-74
2021/04/03 06:53:09;;;;;;;12.73;2.30;;;6.50;78.30;;;;;;5090951;28;20063;-75
2021/04/03 06:55:37;;;;;;;13.00;2.53;;;6.50;78.80;;;;;;5088107;28;20058;-77
2021/04/03 06:58:05;;;;;;;9.63;1.80;;;6.60;78.10;;;;;;5084957;28;20101;-75
2021/04/03 07:00:33;;;;;;;10.80;2.17;;;6.70;78.10;;;;;;5077496;28;20044;-76
2021/04/03 07:03:03;;;;;;;12.93;2.40;;;6.70;78.00;;;;;;5092856;28;20036;-77
2021/04/03 07:05:34;;;;;;;7.60;1.93;;;6.70;77.90;;;;;;5088963;28;20040;-75
2021/04/03 07:08:05;;;;;;;9.65;2.08;;;6.80;77.80;;;;;;5090668;28;20101;-70
2021/04/03 07:10:33;;;;;;;12.97;2.07;;;6.80;77.70;;;;;;5090090;28;20047;-71
2021/04/03 07:13:00;;;;;;;9.57;1.93;;;6.90;77.70;;;;;;5091805;28;20054;-71
2021/04/03 07:15:28;;;;;;;14.43;3.33;;;6.90;77.60;;;;;;5090908;28;20434;-74
2021/04/03 07:17:57;;;;;;;13.23;1.80;;;7.00;77.60;;;;;;5090761;28;20056;-71
2021/04/03 07:20:25;;;;;;;13.03;2.13;;;7.00;77.50;;;;;;5069908;28;20033;-71
2021/04/03 07:22:56;;;;;;;8.33;2.03;;;7.00;77.50;;;;;;5045032;28;20051;-71
2021/04/03 07:25:27;;;;;;;9.53;2.43;;;7.10;77.40;;;;;;5082056;28;20062;-72
2021/04/03 07:27:57;;;;;;;7.67;1.53;;;7.10;77.30;;;;;;5087740;28;20893;-71
2021/04/03 07:30:45;;;;;;;7.97;1.80;;;7.10;77.20;;;;;;5086679;28;20059;-71
2021/04/03 07:33:19;;;;;;;15.40;2.37;;;7.20;77.00;;;;;;5064474;28;20051;-71
2021/04/03 07:35:57;;;;;;;9.77;1.57;;;7.10;76.90;;;;;;5085631;28;20040;-72
2021/04/03 07:38:27;;;;;;;9.67;1.50;;;7.10;77.00;;;;;;5091502;28;20059;-71
2021/04/03 07:40:59;;;;;;;8.53;2.07;;;7.10;77.00;;;;;;5090096;28;20096;-71
2021/04/03 07:43:41;;;;;;;7.97;2.07;;;7.20;76.90;;;;;;5090607;28;20700;-71
2021/04/03 07:46:12;;;;;;;6.68;1.48;;;7.20;76.70;;;;;;5077564;28;20387;-72
2021/04/03 07:48:59;;;;;;;12.07;2.63;;;7.20;76.70;;;;;;5090272;28;20403;-71
2021/04/03 07:51:28;;;;;;;12.43;2.17;;;7.20;76.60;;;;;;5077968;28;20044;-71
2021/04/03 07:53:57;;;;;;;7.33;1.33;;;7.30;76.60;;;;;;5088967;28;20502;-70
2021/04/03 07:56:26;;;;;;;9.80;1.83;;;7.30;76.40;;;;;;5086066;28;20040;-71
2021/04/03 07:58:57;;;;;;;7.27;1.33;;;7.30;76.30;;;;;;5089863;28;20070;-71
2021/04/03 08:01:47;;;;;;;10.40;1.90;;;7.40;76.20;;;;;;5082889;28;20063;-71
2021/04/03 08:04:14;;;;;;;7.93;1.43;;;7.50;76.10;;;;;;5089874;28;20043;-71
2021/04/03 08:06:43;;;;;;;5.77;1.10;;;7.60;75.90;;;;;;5070080;28;20064;-71
2021/04/03 08:09:14;;;;;;;11.10;2.10;;;7.80;75.70;;;;;;5090040;28;20081;-71
2021/04/03 08:11:42;;;;;;;7.27;1.70;;;7.90;75.50;;;;;;5091037;28;20511;-71
2021/04/03 08:14:11;;;;;;;6.27;1.23;;;8.00;75.20;;;;;;5069747;28;20036;-71
2021/04/03 08:16:39;;;;;;;5.75;1.17;;;8.10;75.10;;;;;;5089307;28;20040;-71
2021/04/03 08:19:06;;;;;;;10.13;1.83;;;8.30;74.80;;;;;;5090073;28;20044;-71
2021/04/03 08:21:47;;;;;;;7.10;1.83;;;8.40;75.20;;;;;;5071758;28;20430;-72
2021/04/03 08:24:15;;;;;;;7.43;1.33;;;8.30;74.40;;;;;;5080534;28;20045;-72
2021/04/03 08:26:43;;;;;;;8.53;1.20;;;8.30;74.50;;;;;;5089341;28;20036;-71
2021/04/03 08:29:25;;;;;;;4.37;0.87;;;8.30;74.50;;;;;;5089614;28;20036;-71
2021/04/03 08:31:58;;;;;;;9.17;1.27;;;8.40;74.50;;;;;;5089795;28;20125;-71
2021/04/03 08:34:25;;;;;;;8.37;1.20;;;8.40;74.40;;;;;;5089789;28;20058;-71
2021/04/03 08:36:53;;;;;;;6.50;1.83;;;8.50;74.20;;;;;;5090936;28;20499;-71
2021/04/03 08:39:23;;;;;;;8.80;2.03;;;8.60;73.90;;;;;;5068814;28;20053;-71
2021/04/03 08:41:53;;;;;;;8.48;1.45;;;8.80;73.70;;;;;;5073564;28;20090;-71
2021/04/03 08:44:29;;;;;;;12.37;1.77;;;9.00;73.20;;;;;;5076148;28;20067;-71
2021/04/03 08:47:03;;;;;;;10.40;1.77;;;9.10;72.70;;;;;;5094604;28;20032;-71
2021/04/03 08:49:38;;;;;;;8.18;1.63;;;9.20;72.20;;;;;;5093268;28;20048;-71
2021/04/03 08:52:10;;;;;;;7.27;2.30;;;9.30;72.10;;;;;;5092123;28;20059;-71
2021/04/03 08:54:40;;;;;;;7.28;1.40;;;9.40;72.10;;;;;;5092926;28;20052;-71
2021/04/03 08:57:24;;;;;;;8.52;1.55;;;9.50;71.90;;;;;;5091692;28;20040;-71
2021/04/03 08:59:51;;;;;;;9.60;1.85;;;9.70;71.50;;;;;;5087917;28;20036;-71
2021/04/03 09:02:18;;;;;;;8.10;1.58;;;9.80;71.30;;;;;;5088410;28;20507;-71
2021/04/03 09:04:48;;;;;;;6.68;1.30;;;9.80;70.90;;;;;;5091331;28;20040;-71
2021/04/03 09:07:31;;;;;;;7.97;1.48;;;9.70;70.90;;;;;;5073391;28;20064;-71
2021/04/03 09:10:10;;;;;;;8.23;1.65;;;9.70;70.60;;;;;;5072611;28;20136;-71
2021/04/03 09:12:37;;;;;;;6.63;1.25;;;9.50;70.50;;;;;;5093038;28;20471;-71
2021/04/03 09:15:07;;;;;;;10.25;1.63;;;9.50;70.80;;;;;;5092715;28;20048;-71
2021/04/03 09:17:34;;;;;;;8.10;1.20;;;9.50;70.80;;;;;;5093132;28;20058;-71
2021/04/03 09:20:11;;;;;;;6.25;1.83;;;9.40;70.70;;;;;;5092866;28;20048;-71
2021/04/03 09:22:42;;;;;;;4.83;1.27;;;9.40;70.30;;;;;;5093985;28;20043;-71
2021/04/03 09:25:21;;;;;;;4.35;0.88;;;9.40;70.60;;;;;;5072558;28;20041;-71
2021/04/03 09:27:58;;;;;;;6.00;1.60;;;9.40;70.70;;;;;;5093205;28;20499;-71
2021/04/03 09:30:33;;;;;;;4.43;0.77;;;9.60;70.50;;;;;;5090910;28;20055;-71
2021/04/03 09:33:14;;;;;;;6.25;1.00;;;9.80;70.30;;;;;;5093864;28;20063;-80
2021/04/03 09:35:41;;;;;;;9.20;2.35;;;9.90;69.70;;;;;;5091770;28;20052;-79
2021/04/03 09:38:09;;;;;;;8.00;0.98;;;10.00;69.30;;;;;;5091139;28;20105;-72
2021/04/03 09:40:46;;;;;;;7.65;2.22;;;10.00;69.00;;;;;;5093452;28;20047;-72
2021/04/03 09:43:14;;;;;;;9.48;1.73;;;10.00;68.90;;;;;;5091094;28;20046;-71
2021/04/03 09:45:43;;;;;;;6.60;1.33;;;9.90;68.80;;;;;;5092195;28;20055;-71
2021/04/03 09:48:10;;;;;;;4.95;1.35;;;9.90;68.90;;;;;;5075464;28;20044;-71
2021/04/03 09:50:39;;;;;;;7.53;1.20;;;10.00;69.00;;;;;;5091413;28;20040;-73
2021/04/03 09:53:10;;;;;;;6.85;1.60;;;10.20;68.70;;;;;;5091519;28;20094;-73
2021/04/03 09:55:38;;;;;;;5.95;1.23;;;10.30;68.80;;;;;;5090948;28;20672;-70
2021/04/03 09:58:05;;;;;;;5.38;1.30;;;10.50;68.20;;;;;;5092915;28;20483;-71
2021/04/03 10:00:33;;;;;;;5.97;1.02;;;10.60;67.60;;;;;;5091359;28;20085;-71
2021/04/03 10:03:00;;;;;;;5.90;1.40;;;10.70;67.30;;;;;;5092888;28;20109;-71
2021/04/03 10:05:27;;;;;;;3.85;1.10;;;10.80;67.00;;;;;;5057903;28;20135;-71
2021/04/03 10:07:53;;;;;;;4.63;1.15;;;11.00;67.20;;;;;;5090465;28;20042;-71
2021/04/03 10:10:20;;;;;;;4.53;0.70;;;11.20;66.90;;;;;;5071198;28;20052;-71
2021/04/03 10:12:46;;;;;;;5.72;1.08;;;11.30;66.60;;;;;;5087051;28;20047;-70
2021/04/03 10:15:13;;;;;;;7.55;1.73;;;11.50;65.90;;;;;;5091714;28;20047;-71
2021/04/03 10:17:40;;;;;;;8.30;1.33;;;11.70;65.80;;;;;;5092758;28;20499;-71
2021/04/03 10:20:07;;;;;;;7.45;1.52;;;11.70;64.40;;;;;;5072018;28;20032;-72
2021/04/03 10:22:33;;;;;;;9.38;1.52;;;11.50;64.60;;;;;;5089331;28;20483;-72
2021/04/03 10:25:00;;;;;;;8.38;1.15;;;11.50;64.90;;;;;;5073072;28;20399;-70
2021/04/03 10:27:26;;;;;;;4.93;1.05;;;11.60;64.50;;;;;;5090968;28;20498;-71
2021/04/03 10:29:53;;;;;;;9.18;1.33;;;11.60;64.60;;;;;;5090234;28;20032;-70
2021/04/03 10:32:19;;;;;;;5.25;1.45;;;11.80;64.00;;;;;;5092211;28;20044;-71
2021/04/03 10:34:46;;;;;;;5.65;1.10;;;11.90;63.60;;;;;;5088395;28;20074;-72
2021/04/03 10:37:12;;;;;;;4.53;1.10;;;12.00;63.40;;;;;;5069386;28;20587;-70
2021/04/03 10:39:39;;;;;;;8.05;1.10;;;12.00;63.40;;;;;;5082287;28;20059;-71
2021/04/03 10:42:06;;;;;;;7.57;1.20;;;12.00;63.20;;;;;;5087270;28;20085;-71
2021/04/03 10:44:33;;;;;;;6.45;1.25;;;11.80;63.20;;;;;;5089606;28;20036;-72
2021/04/03 10:47:00;;;;;;;7.72;1.30;;;12.00;63.20;;;;;;5084981;28;20102;-72
2021/04/03 10:49:28;;;;;;;7.72;1.50;;;12.40;62.10;;;;;;5070571;28;20037;-70
2021/04/03 10:51:55;;;;;;;8.10;1.17;;;12.60;61.30;;;;;;5069071;28;20071;-71
2021/04/03 10:54:22;;;;;;;7.88;1.00;;;12.70;61.10;;;;;;5088298;28;20526;-70
2021/04/03 10:56:49;;;;;;;10.25;2.08;;;12.70;60.70;;;;;;5091371;28;20039;-71
2021/04/03 10:59:16;;;;;;;6.03;1.63;;;12.40;60.60;;;;;;5083637;28;20047;-70
2021/04/03 11:01:43;;;;;;;5.18;1.00;;;12.30;61.20;;;;;;5074735;28;20041;-71
2021/04/03 11:04:09;;;;;;;3.33;0.73;;;12.30;61.70;;;;;;5085271;28;20434;-71
2021/04/03 11:06:36;;;;;;;2.95;0.70;;;12.70;61.10;;;;;;5090546;28;20473;-71
2021/04/03 11:09:04;;;;;;;7.57;1.10;;;13.20;60.10;;;;;;5073034;28;20083;-71
2021/04/03 11:11:31;;;;;;;7.18;1.00;;;13.30;59.20;;;;;;5091527;28;20032;-71
2021/04/03 11:13:58;;;;;;;9.23;1.02;;;13.00;59.60;;;;;;5090693;28;20495;-71
2021/04/03 11:16:26;;;;;;;6.50;1.55;;;12.70;60.00;;;;;;5057314;28;20050;-72
2021/04/03 11:18:53;;;;;;;9.38;1.60;;;12.60;60.40;;;;;;5073391;28;20036;-70
2021/04/03 11:21:20;;;;;;;5.43;1.17;;;12.40;60.00;;;;;;5090376;28;20093;-70
2021/04/03 11:23:49;;;;;;;7.28;1.23;;;12.30;60.60;;;;;;5091072;28;20032;-70
2021/04/03 11:26:16;;;;;;;7.53;1.20;;;12.30;60.20;;;;;;5090545;28;20055;-71
2021/04/03 11:28:43;;;;;;;10.27;1.30;;;12.40;60.50;;;;;;5091127;28;20491;-70
2021/04/03 11:31:09;;;;;;;7.55;1.30;;;12.40;59.90;;;;;;5090403;28;20040;-70
2021/04/03 11:33:36;;;;;;;6.10;1.27;;;12.40;60.70;;;;;;5069752;28;20086;-70
2021/04/03 11:36:24;;;;;;;5.32;1.73;;;12.40;59.90;;;;;;5081396;28;20059;-74
2021/04/03 11:38:50;;;;;;;5.18;1.15;;;12.40;60.00;;;;;;5095900;28;20050;-79
2021/04/03 11:41:37;;;;;;;5.72;1.10;;;12.40;59.40;;;;;;5092906;28;20059;-78
2021/04/03 11:44:04;;;;;;;4.20;1.00;;;12.50;59.40;;;;;;5092275;28;20123;-70
2021/04/03 11:46:30;;;;;;;3.17;0.80;;;12.50;59.40;;;;;;5073394;28;20479;-70
2021/04/03 11:48:57;;;;;;;3.60;0.88;;;12.60;59.40;;;;;;5090041;28;20368;-70
2021/04/03 11:51:24;;;;;;;7.28;1.35;;;12.80;59.30;;;;;;5090254;28;20123;-71
2021/04/03 11:53:50;;;;;;;5.38;0.98;;;13.00;58.40;;;;;;5089516;28;20043;-71
2021/04/03 11:56:17;;;;;;;4.63;0.80;;;13.10;58.30;;;;;;5090604;28;20043;-70
2021/04/03 11:58:48;;;;;;;6.97;1.35;;;13.20;58.50;;;;;;5091274;28;20097;-74
2021/04/03 12:01:15;;;;;;;4.88;0.75;;;13.20;58.00;;;;;;5089552;28;20040;-72
2021/04/03 12:03:41;;;;;;;7.47;1.88;;;13.10;58.20;;;;;;5089562;28;20052;-72
2021/04/03 12:06:08;;;;;;;4.20;1.30;;;13.00;57.90;;;;;;5069477;28;20143;-70
2021/04/03 12:08:34;;;;;;;6.68;0.88;;;12.80;58.10;;;;;;5096438;28;20033;-70
2021/04/03 12:11:02;;;;;;;4.20;0.70;;;12.80;58.20;;;;;;5099818;28;20043;-71
2021/04/03 12:13:29;;;;;;;4.22;1.15;;;12.80;58.30;;;;;;5086561;28;20089;-70
2021/04/03 12:15:56;;;;;;;6.78;1.13;;;12.90;58.40;;;;;;5091835;28;20044;-70
2021/04/03 12:18:22;;;;;;;5.60;1.13;;;13.00;58.00;;;;;;5076321;28;20063;-70
2021/04/03 12:20:52;;;;;;;6.32;1.00;;;13.00;57.90;;;;;;5073378;28;20105;-71
2021/04/03 12:23:19;;;;;;;9.57;1.45;;;13.10;57.80;;;;;;5077093;28;20063;-71
2021/04/03 12:25:45;;;;;;;5.35;1.30;;;13.20;57.20;;;;;;5093444;28;20535;-71
2021/04/03 12:28:12;;;;;;;9.15;3.58;;;13.20;57.90;;;;;;5093519;28;20075;-69
2021/04/03 12:30:38;;;;;;;7.07;2.10;;;13.20;56.30;;;;;;5094994;28;20040;-71
2021/04/03 12:33:05;;;;;;;9.68;2.30;;;13.30;56.70;;;;;;5094821;28;20052;-72
2021/04/03 12:35:32;;;;;;;7.90;2.05;;;13.30;56.30;;;;;;5076572;28;20518;-72
2021/04/03 12:37:58;;;;;;;6.65;1.15;;;13.30;56.30;;;;;;5073244;28;20071;-71
2021/04/03 12:40:25;;;;;;;5.93;1.85;;;13.20;56.50;;;;;;5092170;28;20070;-71
2021/04/03 12:42:51;;;;;;;6.85;1.30;;;13.20;57.20;;;;;;5093378;28;20044;-72
2021/04/03 12:45:18;;;;;;;4.72;1.10;;;13.20;56.50;;;;;;5093544;28;20032;-72
2021/04/03 12:47:44;;;;;;;5.55;1.40;;;13.20;56.30;;;;;;5094336;28;20092;-71
2021/04/03 12:50:12;;;;;;;3.90;0.70;;;13.10;56.50;;;;;;5092983;28;20047;-71
2021/04/03 12:52:39;;;;;;;4.30;0.75;;;13.10;56.40;;;;;;5093060;28;20131;-71
2021/04/03 12:55:06;;;;;;;2.90;0.70;;;13.20;56.50;;;;;;5092398;28;20499;-71
2021/04/03 12:57:33;;;;;;;3.92;0.73;;;13.30;56.30;;;;;;5093602;28;20064;-70
2021/04/03 12:59:59;;;;;;;5.10;0.90;;;13.40;56.20;;;;;;5075646;28;20613;-71
2021/04/03 13:02:26;;;;;;;10.43;1.83;;;13.60;55.90;;;;;;5093973;28;20043;-80
2021/04/03 13:04:53;;;;;;;5.15;1.33;;;13.60;55.10;;;;;;5093867;28;20070;-81
2021/04/03 13:07:20;;;;;;;7.18;1.33;;;13.60;54.90;;;;;;5095406;28;20039;-79